Time;durP1;ratioP1;P1;durP2;ratioP2;P2;SDS_P1;SDS_P2;PMS_P1;PMS_P2;Temp;Humidity;BMP_temperature;BMP_pressure;BME280_temperature;BME280_humidity;BME280_pressure;Samples;Min_cycle;Max_cycle;Signal;HPM_P1;HPM_P2
2021/08/28 00:00:50;;;;;;;;;;;22.90;47.70;;;;;;1592179;73;788;-69
2021/08/28 00:02:50;;;;;;;;;;;22.90;47.80;;;;;;1591493;73;1713;-69
2021/08/28 00:04:52;;;;;;;;;;;22.90;47.80;;;;;;1600448;73;1938;-72
2021/08/28 00:06:54;;;;;;;;;;;22.90;47.90;;;;;;1590604;73;955;-69
2021/08/28 00:08:56;;;;;;;;;;;22.80;47.90;;;;;;1590040;73;1199;-71
2021/08/28 00:10:58;;;;;;;;;;;22.80;47.90;;;;;;1597731;73;740;-71
2021/08/28 00:13:00;;;;;;;;;;;22.90;48.00;;;;;;1585247;73;776;-69
2021/08/28 00:15:02;;;;;;;;;;;22.80;47.90;;;;;;1583839;73;706;-69
2021/08/28 00:17:04;;;;;;;;;;;22.90;48.00;;;;;;1597882;73;817;-69
2021/08/28 00:19:06;;;;;;;;;;;22.90;48.10;;;;;;1593668;73;1151;-69
2021/08/28 00:21:08;;;;;;;;;;;22.90;48.20;;;;;;1603373;73;787;-69
2021/08/28 00:23:10;;;;;;;;;;;22.90;48.00;;;;;;1598990;73;772;-69
2021/08/28 00:25:12;;;;;;;;;;;22.90;47.90;;;;;;1600291;73;1943;-69
2021/08/28 00:27:13;;;;;;;;;;;22.80;47.80;;;;;;1600885;73;951;-69
2021/08/28 00:29:15;;;;;;;;;;;22.90;47.90;;;;;;1595935;73;1139;-69
2021/08/28 00:31:17;;;;;;;;;;;22.90;47.80;;;;;;1594473;73;775;-69
2021/08/28 00:33:19;;;;;;;;;;;22.80;47.70;;;;;;1596041;73;797;-70
2021/08/28 00:35:21;;;;;;;;;;;22.90;47.80;;;;;;1591800;73;755;-71
2021/08/28 00:37:23;;;;;;;;;;;22.90;47.90;;;;;;1607510;73;705;-70
2021/08/28 00:39:25;;;;;;;;;;;22.90;48.10;;;;;;1596918;73;1143;-70
2021/08/28 00:41:27;;;;;;;;;;;22.90;47.90;;;;;;1601421;73;696;-70
2021/08/28 00:43:29;;;;;;;;;;;22.80;47.70;;;;;;1585593;73;789;-69
2021/08/28 00:45:32;;;;;;;;;;;22.90;47.80;;;;;;1595009;73;1930;-69
2021/08/28 00:47:34;;;;;;;;;;;22.90;47.90;;;;;;1603690;73;1019;-71
2021/08/28 00:49:36;;;;;;;;;;;22.90;47.90;;;;;;1594625;73;1115;-69
2021/08/28 00:51:40;;;;;;;;;;;22.80;47.70;;;;;;1603932;73;795;-69
2021/08/28 00:53:42;;;;;;;;;;;22.90;47.80;;;;;;1597969;73;1113;-71
2021/08/28 00:55:44;;;;;;;;;;;22.90;47.80;;;;;;1587317;73;847;-69
2021/08/28 00:57:46;;;;;;;;;;;22.90;47.90;;;;;;1588167;73;792;-69
2021/08/28 00:59:48;;;;;;;;;;;22.90;48.00;;;;;;1594584;73;1113;-69
2021/08/28 01:01:50;;;;;;;;;;;22.90;47.90;;;;;;1588458;73;841;-70
2021/08/28 01:03:53;;;;;;;;;;;22.90;47.90;;;;;;1599322;73;726;-70
2021/08/28 01:06:12;;;;;;;;;;;22.90;47.90;;;;;;1593885;73;1937;-69
2021/08/28 01:08:25;;;;;;;;;;;22.90;47.90;;;;;;1593403;73;1124;-70
2021/08/28 01:10:29;;;;;;;;;;;22.90;48.00;;;;;;1593388;73;770;-68
2021/08/28 01:12:33;;;;;;;;;;;22.90;48.00;;;;;;1600013;73;783;-67
2021/08/28 01:14:35;;;;;;;;;;;22.90;48.00;;;;;;1600770;73;787;-68
2021/08/28 01:16:37;;;;;;;;;;;22.90;48.10;;;;;;1589116;73;780;-69
2021/08/28 01:18:39;;;;;;;;;;;22.90;48.10;;;;;;1593413;73;1208;-69
2021/08/28 01:20:46;;;;;;;;;;;22.90;48.00;;;;;;1594612;73;767;-68
2021/08/28 01:22:48;;;;;;;;;;;22.90;47.90;;;;;;1597981;73;791;-69
2021/08/28 01:24:50;;;;;;;;;;;22.80;47.80;;;;;;1597742;73;1963;-70
2021/08/28 01:27:05;;;;;;;;;;;22.80;48.00;;;;;;1597941;73;687;-69
2021/08/28 01:29:15;;;;;;;;;;;22.90;48.10;;;;;;1595181;73;1143;-69
2021/08/28 01:31:17;;;;;;;;;;;22.80;48.10;;;;;;1602579;73;701;-68
2021/08/28 01:33:19;;;;;;;;;;;22.80;48.10;;;;;;1601085;73;777;-67
2021/08/28 01:35:21;;;;;;;;;;;22.90;48.30;;;;;;1573466;75;1376;-70
2021/08/28 01:37:23;;;;;;;;;;;22.90;48.20;;;;;;1611863;73;700;-70
2021/08/28 01:39:25;;;;;;;;;;;22.80;48.10;;;;;;1604166;73;1103;-69
2021/08/28 01:41:27;;;;;;;;;;;22.80;48.10;;;;;;1600089;73;721;-70
2021/08/28 01:43:29;;;;;;;;;;;22.90;48.10;;;;;;1618144;73;771;-70
2021/08/28 01:45:32;;;;;;;;;;;22.90;48.20;;;;;;1602645;73;1916;-69
2021/08/28 01:47:34;;;;;;;;;;;22.90;48.30;;;;;;1612973;73;669;-69
2021/08/28 01:49:35;;;;;;;;;;;22.90;48.30;;;;;;1607610;73;1099;-69
2021/08/28 01:51:38;;;;;;;;;;;22.90;48.20;;;;;;1583164;74;713;-69
2021/08/28 01:53:40;;;;;;;;;;;22.90;48.20;;;;;;1607522;73;735;-70
2021/08/28 01:55:43;;;;;;;;;;;22.90;48.40;;;;;;1588109;73;956;-69
2021/08/28 01:57:44;;;;;;;;;;;22.80;48.00;;;;;;1594431;73;785;-69
2021/08/28 01:59:46;;;;;;;;;;;22.90;48.10;;;;;;1599441;73;1092;-68
2021/08/28 02:01:48;;;;;;;;;;;22.90;48.00;;;;;;1591832;73;890;-68
2021/08/28 02:03:50;;;;;;;;;;;22.90;47.90;;;;;;1592942;73;828;-70
2021/08/28 02:05:54;;;;;;;;;;;22.90;47.90;;;;;;1594401;73;1928;-70
2021/08/28 02:07:56;;;;;;;;;;;22.90;47.80;;;;;;1585825;73;772;-70
2021/08/28 02:09:59;;;;;;;;;;;22.90;47.90;;;;;;1586122;73;1126;-69
2021/08/28 02:12:11;;;;;;;;;;;22.90;47.70;;;;;;1592076;73;677;-70
2021/08/28 02:14:15;;;;;;;;;;;22.90;47.80;;;;;;1591552;73;677;-68
2021/08/28 02:16:18;;;;;;;;;;;22.90;47.70;;;;;;1598465;73;901;-70
2021/08/28 02:18:33;;;;;;;;;;;22.90;47.70;;;;;;1592637;73;1144;-70
2021/08/28 02:20:36;;;;;;;;;;;22.90;47.90;;;;;;1596578;73;1893;-69
2021/08/28 02:22:39;;;;;;;;;;;22.90;48.00;;;;;;1589950;73;785;-67
2021/08/28 02:24:42;;;;;;;;;;;22.90;47.90;;;;;;1572462;73;1922;-69
2021/08/28 02:26:45;;;;;;;;;;;22.90;47.80;;;;;;1601470;73;787;-67
2021/08/28 02:28:51;;;;;;;;;;;22.90;47.70;;;;;;1597295;73;1119;-67
2021/08/28 02:30:53;;;;;;;;;;;22.90;47.60;;;;;;1600627;73;708;-70
2021/08/28 02:32:55;;;;;;;;;;;22.90;47.60;;;;;;1606682;73;774;-69
2021/08/28 02:34:57;;;;;;;;;;;22.90;47.60;;;;;;1590522;73;834;-68
2021/08/28 02:36:59;;;;;;;;;;;22.90;47.60;;;;;;1603682;73;779;-70
2021/08/28 02:39:01;;;;;;;;;;;22.90;47.60;;;;;;1606749;73;1153;-69
2021/08/28 02:41:03;;;;;;;;;;;22.90;47.50;;;;;;1596740;73;595;-68
2021/08/28 02:43:05;;;;;;;;;;;22.80;47.30;;;;;;1597287;73;717;-69
2021/08/28 02:45:07;;;;;;;;;;;22.90;47.50;;;;;;1595357;73;1929;-68
2021/08/28 02:47:09;;;;;;;;;;;22.80;47.40;;;;;;1588726;73;712;-69
2021/08/28 02:49:11;;;;;;;;;;;22.90;47.50;;;;;;1591882;73;1142;-69
2021/08/28 02:51:13;;;;;;;;;;;22.90;47.50;;;;;;1596804;73;738;-69
2021/08/28 02:53:15;;;;;;;;;;;22.90;47.50;;;;;;1595754;73;778;-70
2021/08/28 02:55:17;;;;;;;;;;;22.90;47.50;;;;;;1593602;73;642;-69
2021/08/28 02:57:19;;;;;;;;;;;22.80;47.40;;;;;;1598390;73;761;-70
2021/08/28 02:59:24;;;;;;;;;;;22.80;47.40;;;;;;1596606;73;1133;-69
2021/08/28 03:01:26;;;;;;;;;;;22.80;47.50;;;;;;1594383;73;1505;-69
2021/08/28 03:03:28;;;;;;;;;;;22.80;47.50;;;;;;1593536;73;811;-69
2021/08/28 03:05:30;;;;;;;;;;;22.90;47.60;;;;;;1596527;73;1921;-70
2021/08/28 03:07:32;;;;;;;;;;;22.90;47.60;;;;;;1593176;73;798;-71
2021/08/28 03:09:35;;;;;;;;;;;22.90;47.80;;;;;;1595999;73;1183;-71
2021/08/28 03:11:37;;;;;;;;;;;22.90;48.00;;;;;;1594836;73;776;-70
2021/08/28 03:13:39;;;;;;;;;;;22.80;47.80;;;;;;1597950;73;811;-70
2021/08/28 03:15:43;;;;;;;;;;;22.90;48.00;;;;;;1595539;73;756;-67
2021/08/28 03:17:45;;;;;;;;;;;22.90;48.10;;;;;;1599315;73;1015;-69
2021/08/28 03:19:47;;;;;;;;;;;22.90;48.10;;;;;;1594620;73;1125;-69
2021/08/28 03:21:49;;;;;;;;;;;22.90;48.30;;;;;;1593648;73;778;-69
2021/08/28 03:23:51;;;;;;;;;;;22.90;48.10;;;;;;1587261;73;675;-69
2021/08/28 03:25:53;;;;;;;;;;;22.80;48.00;;;;;;1597752;73;1937;-69
2021/08/28 03:27:55;;;;;;;;;;;22.80;47.90;;;;;;1594132;73;768;-69
2021/08/28 03:29:57;;;;;;;;;;;22.80;47.80;;;;;;1589295;73;1110;-69
2021/08/28 03:31:59;;;;;;;;;;;22.90;48.20;;;;;;1581816;73;883;-69
2021/08/28 03:34:01;;;;;;;;;;;22.90;48.10;;;;;;1604440;73;716;-69
2021/08/28 03:36:03;;;;;;;;;;;22.80;48.00;;;;;;1604203;73;784;-69
2021/08/28 03:38:05;;;;;;;;;;;22.90;48.10;;;;;;1602958;73;718;-69
2021/08/28 03:40:08;;;;;;;;;;;22.90;48.10;;;;;;1602582;73;1164;-69
2021/08/28 03:42:10;;;;;;;;;;;22.80;47.90;;;;;;1583070;73;702;-71
2021/08/28 03:44:16;;;;;;;;;;;22.80;47.90;;;;;;1615047;73;834;-69
2021/08/28 03:46:18;;;;;;;;;;;22.80;47.90;;;;;;1591742;73;1930;-68
2021/08/28 03:48:20;;;;;;;;;;;22.90;48.10;;;;;;1594709;73;1127;-70
2021/08/28 03:50:22;;;;;;;;;;;22.70;48.10;;;;;;1598323;73;791;-70
2021/08/28 03:52:24;;;;;;;;;;;22.90;48.20;;;;;;1599027;73;827;-69
2021/08/28 03:54:26;;;;;;;;;;;22.90;48.20;;;;;;1592969;73;775;-70
2021/08/28 03:56:28;;;;;;;;;;;22.90;48.30;;;;;;1602067;73;777;-69
2021/08/28 03:58:30;;;;;;;;;;;22.90;48.40;;;;;;1591634;73;1144;-72
2021/08/28 04:00:33;;;;;;;;;;;22.90;48.30;;;;;;1580677;73;846;-70
2021/08/28 04:02:35;;;;;;;;;;;22.90;48.30;;;;;;1598139;73;704;-70
2021/08/28 04:04:37;;;;;;;;;;;22.90;48.30;;;;;;1598232;73;793;-69
2021/08/28 04:06:39;;;;;;;;;;;22.90;48.30;;;;;;1586908;73;1941;-70
2021/08/28 04:08:41;;;;;;;;;;;22.90;48.40;;;;;;1600715;73;1222;-70
2021/08/28 04:10:42;;;;;;;;;;;22.90;48.30;;;;;;1591887;73;1020;-69
2021/08/28 04:12:45;;;;;;;;;;;22.80;48.20;;;;;;1599255;73;772;-71
2021/08/28 04:14:46;;;;;;;;;;;22.90;48.30;;;;;;1588501;73;832;-74
2021/08/28 04:16:48;;;;;;;;;;;22.90;48.30;;;;;;1592173;73;829;-70
2021/08/28 04:18:50;;;;;;;;;;;22.90;48.40;;;;;;1592148;73;1155;-72
2021/08/28 04:20:52;;;;;;;;;;;22.90;48.40;;;;;;1587250;73;817;-70
2021/08/28 04:22:54;;;;;;;;;;;22.90;48.40;;;;;;1595914;73;764;-70
2021/08/28 04:24:56;;;;;;;;;;;22.90;48.40;;;;;;1590990;73;757;-70
2021/08/28 04:26:58;;;;;;;;;;;22.90;48.40;;;;;;1586998;73;1945;-69
2021/08/28 04:29:00;;;;;;;;;;;22.90;48.40;;;;;;1588848;73;1110;-70
2021/08/28 04:31:01;;;;;;;;;;;22.90;48.40;;;;;;1595750;73;779;-71
2021/08/28 04:33:03;;;;;;;;;;;22.90;48.40;;;;;;1595394;73;812;-69
2021/08/28 04:35:06;;;;;;;;;;;22.90;48.50;;;;;;1604338;73;797;-69
2021/08/28 04:37:07;;;;;;;;;;;22.80;48.40;;;;;;1598666;73;755;-71
2021/08/28 04:39:09;;;;;;;;;;;22.90;48.60;;;;;;1602312;73;1120;-69
2021/08/28 04:41:11;;;;;;;;;;;22.90;48.50;;;;;;1602104;73;715;-69
2021/08/28 04:43:13;;;;;;;;;;;22.80;48.30;;;;;;1594335;73;738;-69
2021/08/28 04:45:15;;;;;;;;;;;22.80;48.30;;;;;;1602423;73;814;-72
2021/08/28 04:47:17;;;;;;;;;;;22.90;48.40;;;;;;1600599;73;1929;-69
2021/08/28 04:49:19;;;;;;;;;;;22.90;48.40;;;;;;1591988;73;1103;-70
2021/08/28 04:51:20;;;;;;;;;;;22.90;48.40;;;;;;1598478;73;802;-70
2021/08/28 04:53:22;;;;;;;;;;;22.90;48.30;;;;;;1598901;73;809;-70
2021/08/28 04:55:24;;;;;;;;;;;22.90;48.40;;;;;;1585438;73;785;-69
2021/08/28 04:57:26;;;;;;;;;;;22.90;48.40;;;;;;1595042;73;715;-69
2021/08/28 04:59:28;;;;;;;;;;;22.90;48.40;;;;;;1590311;73;1113;-69
2021/08/28 05:01:30;;;;;;;;;;;22.90;48.40;;;;;;1580607;73;722;-69
2021/08/28 05:03:32;;;;;;;;;;;22.90;48.40;;;;;;1600255;73;768;-69
2021/08/28 05:05:34;;;;;;;;;;;22.80;48.20;;;;;;1590215;73;1922;-69
2021/08/28 05:07:36;;;;;;;;;;;22.90;48.40;;;;;;1601983;73;752;-70
2021/08/28 05:09:37;;;;;;;;;;;22.90;48.30;;;;;;1593502;73;1178;-69
2021/08/28 05:11:39;;;;;;;;;;;22.90;48.30;;;;;;1592014;73;801;-70
2021/08/28 05:13:41;;;;;;;;;;;22.90;48.20;;;;;;1608839;73;671;-69
2021/08/28 05:15:43;;;;;;;;;;;22.90;48.30;;;;;;1595114;73;802;-69
2021/08/28 05:17:45;;;;;;;;;;;22.90;48.20;;;;;;1589195;73;772;-69
2021/08/28 05:19:47;;;;;;;;;;;22.90;48.20;;;;;;1585873;73;1143;-69
2021/08/28 05:21:49;;;;;;;;;;;22.90;48.10;;;;;;1596246;73;764;-69
2021/08/28 05:23:50;;;;;;;;;;;22.90;48.10;;;;;;1584274;73;817;-71
2021/08/28 05:25:52;;;;;;;;;;;22.90;48.10;;;;;;1600585;73;1939;-68
2021/08/28 05:27:54;;;;;;;;;;;22.90;48.20;;;;;;1587149;73;825;-69
2021/08/28 05:29:56;;;;;;;;;;;22.90;48.20;;;;;;1593519;73;1187;-69
2021/08/28 05:31:58;;;;;;;;;;;22.90;48.20;;;;;;1593421;73;713;-70
2021/08/28 05:34:00;;;;;;;;;;;22.90;48.20;;;;;;1589558;73;681;-69
2021/08/28 05:36:02;;;;;;;;;;;22.90;48.40;;;;;;1593130;73;740;-70
2021/08/28 05:38:04;;;;;;;;;;;22.80;48.40;;;;;;1591821;73;713;-71
2021/08/28 05:40:07;;;;;;;;;;;22.80;48.80;;;;;;1590915;73;1136;-70
2021/08/28 05:42:09;;;;;;;;;;;22.90;49.00;;;;;;1584513;73;819;-70
2021/08/28 05:44:11;;;;;;;;;;;22.90;49.10;;;;;;1593142;73;779;-70
2021/08/28 05:46:13;;;;;;;;;;;22.90;49.20;;;;;;1599801;73;1895;-70
2021/08/28 05:48:15;;;;;;;;;;;23.00;48.60;;;;;;1603335;73;1186;-71
2021/08/28 05:50:17;;;;;;;;;;;23.00;48.00;;;;;;1599188;73;818;-66
2021/08/28 05:52:19;;;;;;;;;;;22.90;47.80;;;;;;1596224;73;781;-70
2021/08/28 05:54:21;;;;;;;;;;;23.00;47.50;;;;;;1579568;73;810;-70
2021/08/28 05:56:23;;;;;;;;;;;23.00;47.00;;;;;;1590939;73;784;-72
2021/08/28 05:58:25;;;;;;;;;;;22.90;46.80;;;;;;1586684;73;1124;-67
2021/08/28 06:00:26;;;;;;;;;;;22.80;46.40;;;;;;1585978;73;784;-68
2021/08/28 06:02:28;;;;;;;;;;;22.80;46.20;;;;;;1582450;73;768;-69
2021/08/28 06:04:30;;;;;;;;;;;22.70;45.90;;;;;;1586021;73;771;-69
2021/08/28 06:06:32;;;;;;;;;;;22.70;46.40;;;;;;1586802;73;1921;-70
2021/08/28 06:08:34;;;;;;;;;;;22.70;46.30;;;;;;1586515;73;1145;-70
2021/08/28 06:10:36;;;;;;;;;;;22.70;46.30;;;;;;1589412;73;781;-68
2021/08/28 06:12:38;;;;;;;;;;;22.60;46.00;;;;;;1593722;73;725;-71
2021/08/28 06:14:40;;;;;;;;;;;22.60;46.10;;;;;;1580055;73;729;-70
2021/08/28 06:16:41;;;;;;;;;;;22.70;46.00;;;;;;1587967;73;762;-69
2021/08/28 06:18:43;;;;;;;;;;;22.60;46.00;;;;;;1586892;73;1116;-69
2021/08/28 06:20:45;;;;;;;;;;;22.60;45.90;;;;;;1581052;73;765;-71
2021/08/28 06:22:47;;;;;;;;;;;22.60;45.90;;;;;;1581765;73;792;-69
2021/08/28 06:24:49;;;;;;;;;;;22.50;46.00;;;;;;1586754;73;715;-70
2021/08/28 06:26:51;;;;;;;;;;;22.50;46.00;;;;;;1588235;73;1935;-70
2021/08/28 06:28:53;;;;;;;;;;;22.50;46.00;;;;;;1589645;73;1150;-70
2021/08/28 06:30:55;;;;;;;;;;;22.50;45.90;;;;;;1583514;73;782;-68
2021/08/28 06:32:56;;;;;;;;;;;22.50;45.80;;;;;;1590318;73;804;-68
2021/08/28 06:34:58;;;;;;;;;;;22.50;45.70;;;;;;1586332;73;723;-70
2021/08/28 06:37:00;;;;;;;;;;;22.50;45.60;;;;;;1592304;73;752;-69
2021/08/28 06:39:02;;;;;;;;;;;22.50;45.50;;;;;;1589914;73;1171;-70
2021/08/28 06:41:04;;;;;;;;;;;22.50;45.60;;;;;;1585178;73;739;-68
2021/08/28 06:43:06;;;;;;;;;;;22.50;45.50;;;;;;1593585;73;577;-69
2021/08/28 06:45:08;;;;;;;;;;;22.40;45.40;;;;;;1599143;73;788;-70
2021/08/28 06:47:10;;;;;;;;;;;22.50;45.60;;;;;;1590294;73;1925;-72
2021/08/28 06:49:12;;;;;;;;;;;22.40;45.40;;;;;;1582157;73;1137;-69
2021/08/28 06:51:14;;;;;;;;;;;22.40;45.30;;;;;;1586063;73;906;-69
2021/08/28 06:53:16;;;;;;;;;;;22.40;45.30;;;;;;1581057;73;733;-69
2021/08/28 06:55:17;;;;;;;;;;;22.40;45.40;;;;;;1585770;73;774;-68
2021/08/28 06:57:19;;;;;;;;;;;22.40;45.30;;;;;;1581787;73;742;-68
2021/08/28 06:59:21;;;;;;;;;;;22.40;45.40;;;;;;1590176;73;1139;-68
2021/08/28 07:01:24;;;;;;;;;;;22.40;45.50;;;;;;1574839;73;721;-67
2021/08/28 07:03:26;;;;;;;;;;;22.40;45.50;;;;;;1602141;73;805;-67
2021/08/28 07:05:28;;;;;;;;;;;22.40;45.50;;;;;;1583776;73;783;-67
2021/08/28 07:07:30;;;;;;;;;;;22.40;45.50;;;;;;1589679;73;1932;-67
2021/08/28 07:09:32;;;;;;;;;;;22.40;45.50;;;;;;1589191;73;1180;-68
2021/08/28 07:11:34;;;;;;;;;;;22.40;45.60;;;;;;1593054;73;701;-68
2021/08/28 07:13:36;;;;;;;;;;;22.40;45.60;;;;;;1599008;73;777;-67
2021/08/28 07:15:38;;;;;;;;;;;22.40;45.70;;;;;;1593468;73;768;-70
2021/08/28 07:17:40;;;;;;;;;;;22.40;45.70;;;;;;1589557;73;796;-68
2021/08/28 07:19:41;;;;;;;;;;;22.40;45.50;;;;;;1586479;73;1172;-66
2021/08/28 07:21:43;;;;;;;;;;;22.40;45.40;;;;;;1590788;73;734;-68
2021/08/28 07:23:46;;;;;;;;;;;22.40;45.40;;;;;;1590286;73;707;-68
2021/08/28 07:25:48;;;;;;;;;;;22.40;45.40;;;;;;1588630;73;791;-70
2021/08/28 07:27:50;;;;;;;;;;;22.40;45.50;;;;;;1592783;73;1925;-66
2021/08/28 07:29:52;;;;;;;;;;;22.40;45.50;;;;;;1592513;73;1213;-68
2021/08/28 07:31:54;;;;;;;;;;;22.40;45.50;;;;;;1593729;73;720;-68
2021/08/28 07:33:56;;;;;;;;;;;22.40;45.50;;;;;;1587818;73;731;-68
2021/08/28 07:35:58;;;;;;;;;;;22.40;45.50;;;;;;1591281;73;717;-67
2021/08/28 07:38:00;;;;;;;;;;;22.40;45.50;;;;;;1586997;73;780;-68
2021/08/28 07:40:02;;;;;;;;;;;22.40;45.40;;;;;;1587595;73;1110;-68
2021/08/28 07:42:04;;;;;;;;;;;22.40;45.50;;;;;;1586103;73;784;-68
2021/08/28 07:44:06;;;;;;;;;;;22.30;45.50;;;;;;1583600;73;720;-71
2021/08/28 07:46:08;;;;;;;;;;;22.40;45.50;;;;;;1591566;73;823;-69
2021/08/28 07:48:09;;;;;;;;;;;22.40;45.50;;;;;;1592308;73;1946;-67
2021/08/28 07:50:11;;;;;;;;;;;22.40;45.60;;;;;;1586248;73;765;-65
2021/08/28 07:52:17;;;;;;;;;;;22.40;45.60;;;;;;1579925;73;739;-66
2021/08/28 07:54:17;;;;;;;;;;;22.50;45.70;;;;;;1589208;73;970;-68
2021/08/28 07:56:19;;;;;;;;;;;22.50;45.70;;;;;;1584968;73;775;-69
2021/08/28 07:58:20;;;;;;;;;;;22.50;45.60;;;;;;1592799;73;1090;-70
2021/08/28 08:00:22;;;;;;;;;;;22.50;45.40;;;;;;1584619;73;774;-68
2021/08/28 08:02:24;;;;;;;;;;;22.50;45.30;;;;;;1590460;73;737;-69
2021/08/28 08:04:26;;;;;;;;;;;22.50;45.30;;;;;;1589879;73;801;-67
2021/08/28 08:06:28;;;;;;;;;;;22.50;45.30;;;;;;1593331;73;774;-69
2021/08/28 08:08:30;;;;;;;;;;;22.50;45.30;;;;;;1599739;73;1944;-69
2021/08/28 08:10:32;;;;;;;;;;;22.50;45.40;;;;;;1593590;73;697;-69
2021/08/28 08:12:34;;;;;;;;;;;22.50;45.30;;;;;;1595627;73;766;-74
2021/08/28 08:14:36;;;;;;;;;;;22.50;45.30;;;;;;1593665;73;734;-68
2021/08/28 08:16:37;;;;;;;;;;;22.40;45.30;;;;;;1592633;73;745;-70
2021/08/28 08:18:39;;;;;;;;;;;22.40;45.30;;;;;;1595776;73;1183;-69
2021/08/28 08:20:41;;;;;;;;;;;22.40;45.30;;;;;;1587782;73;773;-68
2021/08/28 08:22:44;;;;;;;;;;;22.30;45.30;;;;;;1586036;73;797;-69
2021/08/28 08:24:46;;;;;;;;;;;22.40;45.30;;;;;;1581564;73;763;-69
2021/08/28 08:26:47;;;;;;;;;;;22.30;45.30;;;;;;1591689;73;1935;-69
2021/08/28 08:28:49;;;;;;;;;;;22.30;45.30;;;;;;1589535;73;1146;-69
2021/08/28 08:30:51;;;;;;;;;;;22.30;45.30;;;;;;1598277;73;743;-68
2021/08/28 08:32:53;;;;;;;;;;;22.30;45.20;;;;;;1594791;73;768;-69
2021/08/28 08:34:55;;;;;;;;;;;22.30;45.20;;;;;;1599600;73;678;-69
2021/08/28 08:36:57;;;;;;;;;;;22.30;45.20;;;;;;1599341;73;787;-69
2021/08/28 08:38:59;;;;;;;;;;;22.30;45.40;;;;;;1600141;73;1131;-67
2021/08/28 08:41:01;;;;;;;;;;;22.30;45.30;;;;;;1578196;73;789;-70
2021/08/28 08:43:03;;;;;;;;;;;22.30;45.30;;;;;;1578241;73;761;-68
2021/08/28 08:45:05;;;;;;;;;;;22.30;45.40;;;;;;1585977;73;747;-69
2021/08/28 08:47:07;;;;;;;;;;;22.20;45.30;;;;;;1594695;73;1921;-70
2021/08/28 08:49:09;;;;;;;;;;;22.20;45.40;;;;;;1560360;75;1163;-69
2021/08/28 08:51:11;;;;;;;;;;;22.30;45.40;;;;;;1597528;73;853;-69
2021/08/28 08:53:14;;;;;;;;;;;22.30;45.30;;;;;;1601130;73;771;-69
2021/08/28 08:55:16;;;;;;;;;;;22.20;45.20;;;;;;1599718;73;649;-69
2021/08/28 08:57:18;;;;;;;;;;;22.30;45.40;;;;;;1589156;73;662;-70
2021/08/28 08:59:20;;;;;;;;;;;22.30;45.40;;;;;;1595647;73;1236;-68
2021/08/28 09:01:22;;;;;;;;;;;22.30;45.40;;;;;;1598784;73;774;-68
2021/08/28 09:03:24;;;;;;;;;;;22.30;45.40;;;;;;1600709;73;743;-67
2021/08/28 09:05:25;;;;;;;;;;;22.30;45.20;;;;;;1601276;73;714;-68
2021/08/28 09:07:27;;;;;;;;;;;22.30;45.20;;;;;;1605721;73;1935;-68
2021/08/28 09:09:29;;;;;;;;;;;22.30;45.20;;;;;;1602034;73;1150;-68
2021/08/28 09:11:31;;;;;;;;;;;22.30;45.20;;;;;;1601002;73;738;-69
2021/08/28 09:13:33;;;;;;;;;;;22.30;45.10;;;;;;1604764;73;737;-67
2021/08/28 09:15:42;;;;;;;;;;;22.30;45.10;;;;;;1603985;73;744;-69
2021/08/28 09:17:44;;;;;;;;;;;22.40;45.00;;;;;;1597379;73;771;-69
2021/08/28 09:19:46;;;;;;;;;;;22.30;45.00;;;;;;1593149;73;1186;-67
2021/08/28 09:21:48;;;;;;;;;;;22.40;44.90;;;;;;1602523;73;830;-68
2021/08/28 09:23:52;;;;;;;;;;;22.30;44.90;;;;;;1585655;73;687;-67
2021/08/28 09:25:54;;;;;;;;;;;22.40;45.00;;;;;;1609361;73;1083;-68
2021/08/28 09:27:56;;;;;;;;;;;22.30;45.00;;;;;;1595132;73;1930;-69
2021/08/28 09:29:57;;;;;;;;;;;22.30;44.90;;;;;;1599620;73;1116;-69
2021/08/28 09:31:59;;;;;;;;;;;22.40;45.00;;;;;;1599609;73;814;-70
2021/08/28 09:34:20;;;;;;;;;;;22.30;45.00;;;;;;1557267;74;1329;-69
2021/08/28 09:36:23;;;;;;;;;;;22.40;45.10;;;;;;1563811;74;790;-69
2021/08/28 09:38:25;;;;;;;;;;;22.30;45.20;;;;;;1536124;74;1142;-70
2021/08/28 09:40:28;;;;;;;;;;;22.40;45.20;;;;;;1588576;73;757;-71
2021/08/28 09:42:30;;;;;;;;;;;22.30;45.20;;;;;;1582932;73;1659;-70
2021/08/28 09:44:36;;;;;;;;;;;22.30;45.20;;;;;;1563651;75;741;-70
2021/08/28 09:46:37;;;;;;;;;;;22.30;45.20;;;;;;1596782;73;748;-70
2021/08/28 09:48:39;;;;;;;;;;;22.40;45.30;;;;;;1601167;73;1937;-71
2021/08/28 09:50:42;;;;;;;;;;;22.30;45.30;;;;;;1593220;73;771;-69
2021/08/28 09:52:44;;;;;;;;;;;22.30;45.30;;;;;;1596498;73;750;-70
2021/08/28 09:54:46;;;;;;;;;;;22.30;45.30;;;;;;1598828;73;698;-71
2021/08/28 09:56:49;;;;;;;;;;;22.30;45.30;;;;;;1597837;73;730;-70
2021/08/28 09:58:51;;;;;;;;;;;22.30;45.40;;;;;;1597793;73;1987;-69
2021/08/28 10:00:53;;;;;;;;;;;22.30;45.40;;;;;;1597590;73;802;-70
2021/08/28 10:02:57;;;;;;;;;;;22.30;45.50;;;;;;1600721;73;729;-70
2021/08/28 10:04:59;;;;;;;;;;;22.20;45.40;;;;;;1604051;73;1761;-70
2021/08/28 10:07:01;;;;;;;;;;;22.30;45.50;;;;;;1597055;73;794;-71
2021/08/28 10:09:03;;;;;;;;;;;22.30;45.50;;;;;;1606305;73;1943;-70
2021/08/28 10:11:05;;;;;;;;;;;22.20;45.50;;;;;;1597276;73;728;-70
2021/08/28 10:13:07;;;;;;;;;;;22.30;45.60;;;;;;1595812;73;724;-67
2021/08/28 10:15:09;;;;;;;;;;;22.30;45.70;;;;;;1596184;73;779;-70
2021/08/28 10:17:11;;;;;;;;;;;22.20;45.70;;;;;;1601808;73;807;-70
2021/08/28 10:19:16;;;;;;;;;;;22.30;45.90;;;;;;1602929;73;1148;-70
2021/08/28 10:21:18;;;;;;;;;;;22.20;46.00;;;;;;1599501;73;723;-68
2021/08/28 10:23:20;;;;;;;;;;;22.30;46.10;;;;;;1597575;73;785;-70
2021/08/28 10:25:24;;;;;;;;;;;22.30;46.20;;;;;;1603872;73;836;-71
2021/08/28 10:27:26;;;;;;;;;;;22.20;46.10;;;;;;1603941;73;1604;-70
2021/08/28 10:29:28;;;;;;;;;;;22.20;46.20;;;;;;1601464;73;1951;-70
2021/08/28 10:31:30;;;;;;;;;;;22.20;46.30;;;;;;1606547;73;796;-69
2021/08/28 10:33:31;;;;;;;;;;;22.30;46.40;;;;;;1597605;73;765;-71
2021/08/28 10:35:34;;;;;;;;;;;22.30;46.40;;;;;;1607446;73;785;-70
2021/08/28 10:37:35;;;;;;;;;;;22.30;46.50;;;;;;1588857;73;731;-70
2021/08/28 10:39:37;;;;;;;;;;;22.30;46.60;;;;;;1600262;73;1161;-71
2021/08/28 10:41:39;;;;;;;;;;;22.30;46.70;;;;;;1600173;73;694;-69
2021/08/28 10:43:41;;;;;;;;;;;22.20;46.70;;;;;;1600327;73;690;-70
2021/08/28 10:45:45;;;;;;;;;;;22.20;46.70;;;;;;1606615;73;758;-70
2021/08/28 10:47:48;;;;;;;;;;;22.20;46.80;;;;;;1588839;73;1923;-72
2021/08/28 10:49:50;;;;;;;;;;;22.20;46.80;;;;;;1598603;73;1144;-69
2021/08/28 10:51:55;;;;;;;;;;;22.20;47.10;;;;;;1600184;73;712;-70
2021/08/28 10:53:57;;;;;;;;;;;22.20;46.90;;;;;;1597210;73;839;-68
2021/08/28 10:55:59;;;;;;;;;;;22.20;47.00;;;;;;1574120;74;1202;-71
2021/08/28 10:58:11;;;;;;;;;;;22.20;47.00;;;;;;1595141;73;773;-70
2021/08/28 11:00:14;;;;;;;;;;;22.20;47.10;;;;;;1600949;73;765;-70
2021/08/28 11:02:16;;;;;;;;;;;22.20;47.10;;;;;;1591252;73;772;-70
2021/08/28 11:04:31;;;;;;;;;;;22.20;47.10;;;;;;1600984;73;806;-70
2021/08/28 11:06:34;;;;;;;;;;;22.10;47.20;;;;;;1590696;73;1766;-68
2021/08/28 11:08:37;;;;;;;;;;;22.10;47.20;;;;;;1598596;73;1922;-70
2021/08/28 11:10:39;;;;;;;;;;;22.10;47.20;;;;;;1593207;73;1968;-68
2021/08/28 11:12:52;;;;;;;;;;;22.10;47.30;;;;;;1591873;73;705;-70
2021/08/28 11:14:54;;;;;;;;;;;22.20;47.20;;;;;;1599745;73;954;-70
2021/08/28 11:16:56;;;;;;;;;;;22.20;47.10;;;;;;1601643;73;785;-70
2021/08/28 11:18:58;;;;;;;;;;;22.10;47.00;;;;;;1599996;73;1133;-71
2021/08/28 11:21:01;;;;;;;;;;;22.20;47.00;;;;;;1593409;73;831;-70
2021/08/28 11:23:04;;;;;;;;;;;22.20;47.00;;;;;;1597293;73;1029;-71
2021/08/28 11:25:06;;;;;;;;;;;22.20;47.00;;;;;;1596325;73;675;-71
2021/08/28 11:27:08;;;;;;;;;;;22.20;47.00;;;;;;1598412;73;811;-69
2021/08/28 11:29:22;;;;;;;;;;;22.10;46.90;;;;;;1595887;73;1936;-70
2021/08/28 11:31:24;;;;;;;;;;;22.10;46.90;;;;;;1593671;73;730;-71
2021/08/28 11:33:27;;;;;;;;;;;22.10;47.00;;;;;;1568278;74;1210;-69
2021/08/28 11:35:32;;;;;;;;;;;22.10;47.00;;;;;;1571046;74;761;-71
2021/08/28 11:37:36;;;;;;;;;;;22.10;47.10;;;;;;1544063;76;932;-71
2021/08/28 11:39:39;;;;;;;;;;;22.10;47.10;;;;;;1529501;76;1155;-71
2021/08/28 11:41:41;;;;;;;;;;;22.10;47.10;;;;;;1566619;74;1802;-70
2021/08/28 11:43:43;;;;;;;;;;;22.10;47.10;;;;;;1567633;74;705;-70
2021/08/28 11:45:45;;;;;;;;;;;22.10;46.90;;;;;;1568987;74;667;-70
2021/08/28 11:47:47;;;;;;;;;;;22.20;46.80;;;;;;1566189;74;705;-70
2021/08/28 11:49:56;;;;;;;;;;;22.10;46.80;;;;;;1569851;74;1941;-71
2021/08/28 11:51:58;;;;;;;;;;;22.10;46.80;;;;;;1570995;74;759;-70
2021/08/28 11:54:00;;;;;;;;;;;22.00;46.80;;;;;;1564525;74;693;-70
2021/08/28 11:56:03;;;;;;;;;;;22.10;46.90;;;;;;1567473;74;792;-68
2021/08/28 11:58:12;;;;;;;;;;;22.10;46.80;;;;;;1569615;74;968;-70
2021/08/28 12:00:13;;;;;;;;;;;22.10;46.90;;;;;;1570213;74;1083;-70
2021/08/28 12:02:14;;;;;;;;;;;22.10;46.90;;;;;;1568991;74;679;-70
2021/08/28 12:04:18;;;;;;;;;;;22.00;46.90;;;;;;1547685;74;1208;-69
2021/08/28 12:06:21;;;;;;;;;;;22.00;46.80;;;;;;1569503;74;913;-71
2021/08/28 12:08:23;;;;;;;;;;;22.10;47.00;;;;;;1568111;74;1950;-70
2021/08/28 12:10:25;;;;;;;;;;;22.20;47.10;;;;;;1569532;74;737;-71